Latest Coastal Weather Observations for Port Kembla Harbour

IDN60701

Issued at 12:32 pm EST Tuesday 26 July 2016 (issued every 10 minutes, with the page automatically refreshed every 10 minutes)

About coastal observations | Map of coastal stations | Coastal observations for NSW | Marine services | Other Formats
Station Details ID: 068253 Name: PORT KEMBLA NTC AWS Lat: -34.47 Lon: 150.91 Height: 0.0 m
Data from the previous 72 hours. | See also: Recent months for locations in New South Wales
Date/Time
EST
Temp
°C
Wind Pressure Rain since
9am
mm
Weather Cloud Vis
km
Sea
Height
m
Swell
Dir  Spd
kts
Gust
kts
hPa Trend Height
m
Period
s
Dir
26/12:30pm 15.8 WSW 8 17 1013.1 - - - - - - - - -
26/12:00pm 15.4 W 13 18 1013.5 - - - - - - - - -
26/11:30am 15.6 W 13 18 1014.0 - - - - - - - - -
26/11:00am 15.2 W 12 17 1014.3 - - - - - - - - -
26/10:30am 15.0 W 14 21 1014.4 - - - - - - - - -
26/10:02am 14.9 WNW 17 27 1014.3 - - - - - - - - -
26/10:00am 14.9 WNW 18 27 1014.2 - - - - - - - - -
26/09:45am 14.6 W 17 26 1014.2 - - - - - - - - -
26/09:30am 14.4 W 10 16 1014.3 - - - - - - - - -
26/09:00am 14.0 W 9 14 1013.7 - - - - - - - - -
26/08:30am 13.7 W 8 11 1013.7 - - - - - - - - -
26/08:00am 13.3 WSW 4 6 1013.4 - - - - - - - - -
26/07:30am 13.6 WNW 7 11 1012.9 - - - - - - - - -
26/07:00am 13.7 WNW 8 11 1012.7 - - - - - - - - -
26/06:30am 13.9 WNW 9 14 1012.3 - - - - - - - - -
26/06:00am 13.8 WNW 11 21 1011.4 - - - - - - - - -
26/05:30am 13.7 WNW 5 10 1011.0 - - - - - - - - -
26/05:00am 13.4 W 2 5 1010.7 - - - - - - - - -
26/04:30am 14.0 N 6 13 1010.4 - - - - - - - - -
26/04:00am 13.7 N 8 12 1010.1 - - - - - - - - -
26/03:30am 13.5 NNE 9 14 1010.6 - - - - - - - - -
26/03:00am 13.3 N 10 17 1010.6 - - - - - - - - -
26/02:30am 12.7 N 8 13 1010.8 - - - - - - - - -
26/02:00am 12.5 NNW 8 13 1011.1 - - - - - - - - -
26/01:30am 11.6 NNW 7 12 1011.3 - - - - - - - - -
26/01:00am 11.9 NNW 8 13 1011.2 - - - - - - - - -
26/12:30am 12.7 NW 5 10 1011.4 - - - - - - - - -
26/12:00am 12.9 NW 9 14 1011.5 - - - - - - - - -
 
Date/Time
EST
Temp
°C
Wind Pressure Rain since
9am
mm
Weather Cloud Vis
km
Sea
Height
m
Swell
Dir  Spd
kts
Gust
kts
hPa Trend Height
m
Period
s
Dir
25/11:30pm 13.1 WNW 12 18 1011.5 - - - - - - - - -
25/11:00pm 12.9 WNW 13 17 1011.6 - - - - - - - - -
25/10:31pm 13.1 WNW 15 30 1011.7 - - - - - - - - -
25/10:30pm 13.0 WNW 14 22 1011.7 - - - - - - - - -
25/10:00pm 12.9 NW 11 18 1012.0 - - - - - - - - -
25/09:30pm 12.7 NW 9 17 1012.1 - - - - - - - - -
25/09:00pm 13.1 NW 10 18 1012.0 - - - - - - - - -
25/08:30pm 13.2 NW 7 15 1012.1 - - - - - - - - -
25/08:00pm 13.2 NW 7 10 1012.1 - - - - - - - - -
25/07:30pm 13.4 NW 9 17 1011.9 - - - - - - - - -
25/07:00pm 13.7 NW 13 19 1011.9 - - - - - - - - -
25/06:30pm 13.5 NNW 8 12 1011.8 - - - - - - - - -
25/06:00pm 13.8 WNW 12 18 1011.5 - - - - - - - - -
25/05:30pm 14.0 W 12 18 1011.4 - - - - - - - - -
25/05:08pm 14.1 WNW 19 29 1011.3 - - - - - - - - -
25/05:00pm 14.2 WNW 20 27 1011.0 - - - - - - - - -
25/04:30pm 14.6 WNW 20 33 1010.9 - - - - - - - - -
25/04:22pm 14.8 WNW 20 30 1010.9 - - - - - - - - -
25/04:00pm 15.0 WNW 17 25 1010.5 - - - - - - - - -
25/03:30pm 15.3 W 13 22 1010.3 - - - - - - - - -
25/03:00pm 15.5 WNW 15 20 1010.5 - - - - - - - - -
25/02:30pm 15.4 W 15 24 1010.6 - - - - - - - - -
25/02:00pm 15.4 WNW 15 25 1010.3 - - - - - - - - -
25/01:30pm 15.4 WNW 15 24 1010.3 - - - - - - - - -
25/01:21pm 15.0 W 19 30 1010.3 - - - - - - - - -
25/01:00pm 15.3 W 17 25 1010.3 - - - - - - - - -
25/12:30pm 14.9 W 20 29 1010.5 - - - - - - - - -
25/12:08pm 14.8 W 19 35 1010.7 - - - - - - - - -
25/12:00pm 14.8 W 18 25 1010.7 - - - - - - - - -
25/11:30am 14.4 W 15 25 1011.2 - - - - - - - - -
25/11:00am 14.0 W 16 26 1011.7 - - - - - - - - -
25/10:58am 14.0 WNW 15 25 1011.7 - - - - - - - - -
25/10:30am 14.0 W 14 22 1011.6 - - - - - - - - -
25/10:00am 13.5 W 15 21 1011.6 - - - - - - - - -
25/09:32am 13.3 W 16 28 1011.4 - - - - - - - - -
25/09:30am 13.5 W 15 24 1011.3 - - - - - - - - -
25/09:00am 13.1 W 12 19 1011.3 - - - - - - - - -
25/08:30am 12.6 WNW 11 18 1010.6 - - - - - - - - -
25/08:00am 11.9 NNW 10 14 1010.2 - - - - - - - - -
25/07:30am 11.9 NNW 11 15 1010.5 - - - - - - - - -
25/07:00am 11.7 WNW 7 13 1010.7 - - - - - - - - -
25/06:30am 11.2 W 6 9 1010.3 - - - - - - - - -
25/06:00am 11.3 W 9 12 1010.0 - - - - - - - - -
25/05:30am 11.3 W 10 16 1009.7 - - - - - - - - -
25/05:00am 11.6 W 14 21 1009.4 - - - - - - - - -
25/04:36am 11.7 W 16 27 1009.2 - - - - - - - - -
25/04:30am 11.6 W 17 27 1009.2 - - - - - - - - -
25/04:00am 11.7 W 15 27 1008.8 - - - - - - - - -
25/03:58am 11.7 W 15 27 1008.9 - - - - - - - - -
25/03:30am 11.6 WSW 11 16 1009.0 - - - - - - - - -
25/03:00am 11.8 W 13 21 1009.0 - - - - - - - - -
25/02:30am 11.3 NW 11 19 1008.5 - - - - - - - - -
25/02:00am 11.7 NNW 12 20 1008.5 - - - - - - - - -
25/01:30am 11.9 NNW 6 13 1009.2 - - - - - - - - -
25/01:00am 11.3 NW 10 13 1009.7 - - - - - - - - -
25/12:30am 11.2 NW 9 13 1010.1 - - - - - - - - -
25/12:00am 11.7 NNW 9 13 1010.1 - - - - - - - - -
 
Date/Time
EST
Temp
°C
Wind Pressure Rain since
9am
mm
Weather Cloud Vis
km
Sea
Height
m
Swell
Dir  Spd
kts
Gust
kts
hPa Trend Height
m
Period
s
Dir
24/11:30pm 11.7 NNW 12 14 1010.5 - - - - - - - - -
24/11:00pm 12.2 NNW 12 14 1010.8 - - - - - - - - -
24/10:30pm 11.8 N 9 15 1011.0 - - - - - - - - -
24/10:00pm 11.4 NNW 11 14 1011.3 - - - - - - - - -
24/09:30pm 11.4 NW 9 11 1011.2 - - - - - - - - -
24/09:00pm 11.6 NW 10 13 1011.4 - - - - - - - - -
24/08:30pm 11.9 NNW 8 10 1011.5 - - - - - - - - -
24/08:00pm 11.6 NW 6 9 1012.0 - - - - - - - - -
24/07:30pm 10.5 SW 3 5 1012.0 - - - - - - - - -
24/07:00pm 10.6 WSW 2 3 1012.0 - - - - - - - - -
24/06:30pm 11.0 W 4 5 1011.9 - - - - - - - - -
24/06:00pm 12.3 W 5 7 1011.5 - - - - - - - - -
24/05:30pm 12.8 W 5 7 1011.3 - - - - - - - - -
24/05:00pm 13.3 W 8 12 1010.9 - - - - - - - - -
24/04:30pm 13.7 NW 6 10 1010.4 - - - - - - - - -
24/04:00pm 13.7 WNW 8 12 1010.5 - - - - - - - - -
24/03:30pm 13.7 WNW 15 21 1011.1 - - - - - - - - -
24/03:23pm 13.7 WNW 15 25 1011.1 - - - - - - - - -
24/03:00pm 13.7 WNW 16 22 1011.2 - - - - - - - - -
24/02:30pm 13.4 W 15 20 1011.2 - - - - - - - - -
24/02:00pm 13.5 W 10 13 1011.4 - - - - - - - - -
24/01:30pm 13.2 W 10 17 1011.9 - - - - - - - - -
24/01:00pm 13.2 WNW 10 15 1012.2 - - - - - - - - -
24/12:30pm 12.9 W 9 15 1012.8 - - - - - - - - -
24/12:00pm 13.0 W 11 15 1013.2 - - - - - - - - -
24/11:30am 12.8 WNW 11 15 1013.7 - - - - - - - - -
24/11:00am 12.4 W 11 16 1014.1 - - - - - - - - -
24/10:30am 12.1 W 10 15 1014.3 - - - - - - - - -
24/10:00am 11.6 W 10 15 1014.6 - - - - - - - - -
24/09:30am 11.1 W 9 13 1014.6 - - - - - - - - -
24/09:00am 10.5 W 10 12 1014.2 - - - - - - - - -
24/08:30am 10.0 W 9 12 1014.2 - - - - - - - - -
24/08:00am 9.1 W 8 11 1014.1 - - - - - - - - -
24/07:30am 9.1 W 9 11 1013.6 - - - - - - - - -
24/07:00am 9.2 W 8 10 1013.4 - - - - - - - - -
24/06:30am 9.4 W 8 11 1013.9 - - - - - - - - -
24/06:00am 8.9 W 6 7 1013.5 - - - - - - - - -
24/05:30am 8.7 W 9 11 1013.2 - - - - - - - - -
24/05:00am 9.2 W 10 15 1012.9 - - - - - - - - -
24/04:30am 9.3 W 11 15 1013.1 - - - - - - - - -
24/04:00am 9.6 W 13 17 1013.1 - - - - - - - - -
24/03:30am 9.9 W 15 21 1012.9 - - - - - - - - -
24/03:00am 9.7 W 13 18 1013.0 - - - - - - - - -
24/02:30am 10.0 W 14 20 1012.8 - - - - - - - - -
24/02:00am 10.0 W 14 20 1013.1 - - - - - - - - -
24/01:30am 10.0 W 15 22 1013.1 - - - - - - - - -
24/01:00am 10.4 W 14 19 1013.1 - - - - - - - - -
24/12:30am 10.6 W 16 27 1013.3 - - - - - - - - -
24/12:00am 11.0 W 15 21 1013.3 - - - - - - - - -
 
Date/Time
EST
Temp
°C
Wind Pressure Rain since
9am
mm
Weather Cloud Vis
km
Sea
Height
m
Swell
Dir  Spd
kts
Gust
kts
hPa Trend Height
m
Period
s
Dir
23/11:30pm 11.3 W 16 25 1013.0 - - - - - - - - -
23/11:26pm 11.3 W 15 25 1012.9 - - - - - - - - -
23/11:00pm 11.3 W 10 15 1012.7 - - - - - - - - -

Other Formats:

Comma delimited format used in spreadsheet applications
http://www.bom.gov.au/fwo/IDN60701/IDN60701.95745.axf

JavaScript Object Notation format (JSON) in row-major order
http://www.bom.gov.au/fwo/IDN60701/IDN60701.95745.json